North Topsail Beach, North Carolina
Current Conditions -  °F | °C
As of 3:56 AM on Friday 31 Oct 2014 (Local Time) from KNCA Reporting Station
Clear Clear  
Wind Chill: 52°   Ceiling: Unl
Heat Index: 52°   Visibility: 10mi
Dew Point: 49°   Wind: 8mph
Humidity: 89%   Direction: 10°N
Pressure: 29.91"   Gusts: NA
Location:  34.5396°N, 77.4388°W
Report Text: KNCA 310756Z AUTO 01007KT 10SM CLR 11/09 A2991 RMK AO2 SLP130 T01110094
Loading
Personal Weather Stations






























Interactive Weather Map
Tropical Storm Tracking
New forecast layout! Learn more

10-Day Weather Forecast

Advertisements
Track Severe Weather on mobile